Time;durP1;ratioP1;P1;durP2;ratioP2;P2;SDS_P1;SDS_P2;PMS_P1;PMS_P2;Temp;Humidity;BMP_temperature;BMP_pressure;BME280_temperature;BME280_humidity;BME280_pressure;Samples;Min_cycle;Max_cycle;Signal;HPM_P1;HPM_P2
2022/11/01 00:04:17;;;;;;;28.13;15.80;;;;;;;8.86;80.88;98351.03;10334295;28;20069;-55
2022/11/01 00:09:16;;;;;;;27.80;15.73;;;;;;;8.87;80.68;98345.00;10334507;28;20068;-56
2022/11/01 00:14:17;;;;;;;26.52;14.98;;;;;;;8.82;80.78;98332.84;10333905;28;20072;-56
2022/11/01 00:19:16;;;;;;;26.30;14.75;;;;;;;8.81;81.27;98337.16;10334047;28;20568;-56
2022/11/01 00:24:15;;;;;;;26.63;13.68;;;;;;;8.79;81.53;98336.25;10333183;28;20060;-56
2022/11/01 00:29:15;;;;;;;23.02;14.55;;;;;;;8.69;81.72;98337.84;10332993;28;20029;-56
2022/11/01 00:34:15;;;;;;;25.05;14.25;;;;;;;8.69;81.99;98330.06;10332921;28;20076;-56
2022/11/01 00:39:15;;;;;;;26.38;15.30;;;;;;;8.69;81.87;98326.59;10333616;28;20076;-56
2022/11/01 00:44:14;;;;;;;25.85;16.63;;;;;;;8.62;82.49;98330.81;10334550;28;20069;-56
2022/11/01 00:49:12;;;;;;;24.85;14.50;;;;;;;8.57;82.38;98329.00;10336167;28;20055;-56
2022/11/01 00:54:11;;;;;;;25.73;15.23;;;;;;;8.48;82.28;98330.59;10336217;28;20034;-56
2022/11/01 00:59:10;;;;;;;27.17;14.65;;;;;;;8.41;82.51;98326.19;10335753;28;20099;-55
2022/11/01 01:04:09;;;;;;;35.20;14.48;;;;;;;8.34;82.33;98333.78;10335861;28;20559;-56
2022/11/01 01:09:10;;;;;;;26.08;13.18;;;;;;;8.21;82.78;98328.41;10335028;28;20423;-56
2022/11/01 01:14:09;;;;;;;30.35;13.38;;;;;;;8.10;83.19;98332.50;10335180;28;20075;-56
2022/11/01 01:19:08;;;;;;;22.15;13.23;;;;;;;8.07;83.01;98337.63;10335119;28;20068;-56
2022/11/01 01:24:07;;;;;;;24.70;14.48;;;;;;;8.02;83.40;98342.72;10335458;28;20032;-56
2022/11/01 01:29:06;;;;;;;23.42;13.98;;;;;;;7.96;83.58;98347.75;10335080;28;20416;-56
2022/11/01 01:34:05;;;;;;;28.92;14.05;;;;;;;7.93;83.92;98336.50;10334828;28;20032;-55
2022/11/01 01:39:04;;;;;;;26.70;14.93;;;;;;;7.90;83.85;98334.75;10334141;28;20428;-55
2022/11/01 01:44:41;;;;;;;28.98;14.27;;;;;;;7.81;84.89;98340.59;10333516;28;20117;-56
2022/11/01 01:49:40;;;;;;;25.67;14.98;;;;;;;7.71;85.12;98330.03;10330963;28;20096;-56
2022/11/01 01:54:39;;;;;;;25.00;15.48;;;;;;;7.65;84.67;98348.88;10330630;28;20076;-56
2022/11/01 01:59:39;;;;;;;;;;;;;;;7.62;85.28;98344.53;10331263;28;20077;-56
2022/11/01 02:04:49;;;;;;;28.23;16.77;;;;;;;7.58;85.44;98347.88;10331127;28;19949;-56
2022/11/01 02:09:49;;;;;;;32.90;17.85;;;;;;;7.54;85.59;98347.78;10329959;28;20072;-56
2022/11/01 02:14:48;;;;;;;30.67;16.38;;;;;;;7.48;85.50;98348.53;10330999;28;20064;-56
2022/11/01 02:20:13;;;;;;;31.23;16.75;;;;;;;7.47;84.77;98351.94;10330649;28;20069;-56
2022/11/01 02:25:33;;;;;;;22.95;14.07;;;;;;;7.48;85.23;98351.13;10330158;28;20546;-56
2022/11/01 02:30:43;;;;;;;22.58;13.18;;;;;;;7.47;84.77;98362.28;10330135;28;20084;-56
2022/11/01 02:35:42;;;;;;;26.98;14.82;;;;;;;7.44;84.91;98357.06;10330000;28;20524;-55
2022/11/01 02:40:41;;;;;;;24.45;14.60;;;;;;;7.43;85.02;98365.66;10329822;28;20071;-55
2022/11/01 02:45:44;;;;;;;27.15;15.18;;;;;;;7.43;85.50;98361.34;10330687;28;20025;-56
2022/11/01 02:50:53;;;;;;;23.00;14.23;;;;;;;7.43;85.44;98376.00;10334455;28;20084;-56
2022/11/01 02:55:53;;;;;;;26.23;14.10;;;;;;;7.40;85.20;98361.28;10336622;28;20083;-56
2022/11/01 03:00:52;;;;;;;20.55;11.98;;;;;;;7.39;85.09;98364.69;10335340;28;20135;-56
2022/11/01 03:05:59;;;;;;;18.73;10.07;;;;;;;7.38;85.91;98368.09;10336090;28;20536;-56
2022/11/01 03:11:07;;;;;;;20.60;10.55;;;;;;;7.38;85.72;98367.22;10336242;28;20495;-56
2022/11/01 03:16:18;;;;;;;21.10;11.15;;;;;;;7.40;86.47;98370.75;10334606;28;20115;-56
2022/11/01 03:21:22;;;;;;;20.50;10.25;;;;;;;7.37;86.40;98374.09;10335922;28;20099;-56
2022/11/01 03:26:26;;;;;;;19.17;10.77;;;;;;;7.38;86.65;98378.44;10336154;28;20088;-56
2022/11/01 03:31:30;;;;;;;18.08;10.52;;;;;;;7.37;86.92;98380.97;10335933;28;20065;-55
2022/11/01 03:36:37;;;;;;;33.30;14.70;;;;;;;7.35;86.86;98388.69;10335580;28;20519;-56
2022/11/01 03:41:42;;;;;;;29.83;14.23;;;;;;;7.20;86.90;98388.34;10335184;28;20072;-55
2022/11/01 03:46:42;;;;;;;28.38;14.27;;;;;;;7.10;86.63;98387.28;10335333;28;20484;-56
2022/11/01 03:51:40;;;;;;;27.67;15.73;;;;;;;7.11;86.32;98388.16;10334348;28;20081;-55
2022/11/01 03:56:41;;;;;;;25.55;14.30;;;;;;;7.02;86.69;98392.25;10334890;28;20141;-56
2022/11/01 04:01:40;;;;;;;30.63;15.23;;;;;;;6.99;86.39;98391.31;10334904;28;20041;-55
2022/11/01 04:06:39;;;;;;;32.13;16.10;;;;;;;6.93;86.77;98392.03;10334446;28;20036;-55
2022/11/01 04:11:37;;;;;;;27.60;15.02;;;;;;;6.90;85.90;98394.53;10334023;28;20033;-56
2022/11/01 04:21:54;;;;;;;23.50;14.13;;;;;;;6.82;86.09;98383.19;10334733;28;20073;-56
2022/11/01 04:26:53;;;;;;;22.63;13.45;;;;;;;6.78;86.35;98384.81;10333921;28;20029;-56
2022/11/01 04:31:52;;;;;;;23.90;14.93;;;;;;;6.75;85.51;98387.31;10333906;28;20551;-56
2022/11/01 04:36:51;;;;;;;31.58;17.10;;;;;;;6.71;85.87;98388.06;10333325;28;20081;-56
2022/11/01 04:41:50;;;;;;;29.70;16.17;;;;;;;6.70;85.65;98382.84;10333055;28;20049;-56
2022/11/01 04:46:48;;;;;;;31.40;17.77;;;;;;;6.64;86.63;98378.44;10333001;28;20108;-56
2022/11/01 04:51:47;;;;;;;23.10;14.50;;;;;;;6.58;86.58;98381.72;10332520;28;20048;-56
2022/11/01 04:56:46;;;;;;;25.52;13.73;;;;;;;6.56;86.80;98392.84;10332168;28;20440;-56
2022/11/01 05:01:46;;;;;;;28.85;14.98;;;;;;;6.55;87.13;98388.53;10331951;28;20072;-56
2022/11/01 05:06:44;;;;;;;40.20;19.42;;;;;;;6.56;86.85;98396.31;10324794;28;20073;-56
2022/11/01 05:11:43;;;;;;;37.30;23.70;;;;;;;6.54;86.41;98397.09;10332129;28;20120;-56
2022/11/01 05:16:42;;;;;;;35.05;22.67;;;;;;;6.52;86.22;98402.22;10371052;28;20033;-56
2022/11/01 05:21:41;;;;;;;31.25;20.08;;;;;;;6.51;86.88;98399.59;10364316;28;20036;-56
2022/11/01 05:26:41;;;;;;;37.30;20.20;;;;;;;6.50;86.62;98405.59;10371261;28;20039;-56
2022/11/01 05:31:40;;;;;;;34.45;20.50;;;;;;;6.58;86.47;98422.13;10370608;28;20056;-56
2022/11/01 05:36:39;;;;;;;36.67;20.83;;;;;;;6.63;86.64;98415.34;10370561;28;20032;-55
2022/11/01 05:41:39;;;;;;;35.03;20.77;;;;;;;6.71;86.85;98424.19;10370169;28;20020;-56
2022/11/01 05:46:38;;;;;;;33.95;20.23;;;;;;;6.78;86.25;98432.94;10373551;28;20083;-55
2022/11/01 05:51:38;;;;;;;39.40;22.27;;;;;;;6.78;86.56;98436.38;10373227;28;20040;-55
2022/11/01 05:56:36;;;;;;;47.40;28.95;;;;;;;6.77;86.83;98437.25;10374136;28;20475;-55
2022/11/01 06:01:35;;;;;;;48.97;27.52;;;;;;;6.85;86.88;98441.72;10373220;28;20492;-55
2022/11/01 06:06:34;;;;;;;61.03;29.67;;;;;;;6.94;86.44;98447.09;10373359;28;20108;-55
2022/11/01 06:11:33;;;;;;;52.33;29.73;;;;;;;7.04;86.02;98444.75;10372692;28;20142;-55
2022/11/01 06:16:32;;;;;;;59.30;32.70;;;;;;;7.16;86.55;98444.19;10374003;28;20036;-55
2022/11/01 06:21:31;;;;;;;65.97;35.85;;;;;;;7.29;86.38;98449.63;10372541;28;20080;-55
2022/11/01 06:26:30;;;;;;;62.40;36.28;;;;;;;7.47;85.54;98444.03;10379711;28;20044;-56
2022/11/01 06:31:30;;;;;;;56.28;34.92;;;;;;;7.62;85.32;98453.00;10377645;28;20051;-55
2022/11/01 06:36:29;;;;;;;66.38;33.17;;;;;;;7.80;84.71;98455.13;10377442;28;20561;-55
2022/11/01 06:41:28;;;;;;;46.58;30.63;;;;;;;8.00;85.27;98454.66;10357954;28;20534;-56
2022/11/01 06:46:27;;;;;;;56.53;33.42;;;;;;;8.22;84.27;98462.00;10379230;28;20120;-56
2022/11/01 06:51:26;;;;;;;56.85;32.50;;;;;;;8.45;83.75;98454.69;10378159;28;20128;-56
2022/11/01 06:56:25;;;;;;;50.70;32.30;;;;;;;8.66;83.21;98455.91;10378031;28;20068;-55
2022/11/01 07:01:24;;;;;;;55.40;34.15;;;;;;;8.86;82.81;98464.03;10378034;28;20033;-55
2022/11/01 07:06:27;;;;;;;;;;;;;;;9.04;82.47;98456.56;10377215;28;20495;-55
2022/11/01 07:11:26;;;;;;;61.55;33.15;;;;;;;9.26;82.01;98450.03;10377797;28;19975;-55
2022/11/01 07:16:25;;;;;;;;;;;;;;;9.48;81.94;98448.63;10377582;28;20483;-56
2022/11/01 07:21:25;;;;;;;54.35;31.13;;;;;;;9.70;81.18;98442.06;10376819;28;20284;-56
2022/11/01 07:26:24;;;;;;;50.88;31.20;;;;;;;9.95;80.25;98443.22;10375730;28;20084;-56
2022/11/01 07:31:24;;;;;;;51.30;30.63;;;;;;;10.17;79.01;98443.50;10372721;28;20021;-55
2022/11/01 07:36:23;;;;;;;51.13;28.83;;;;;;;10.45;78.88;98446.38;10363196;28;20464;-56
2022/11/01 07:41:22;;;;;;;54.58;31.40;;;;;;;10.62;77.54;98440.53;10338352;28;20095;-55
2022/11/01 07:46:21;;;;;;;46.00;25.83;;;;;;;10.94;77.28;98444.28;10376271;28;20036;-55
2022/11/01 07:51:20;;;;;;;32.35;20.90;;;;;;;11.19;77.02;98440.19;10374715;28;20393;-56
2022/11/01 07:56:20;;;;;;;34.42;20.05;;;;;;;11.44;76.92;98429.09;10368734;28;20051;-56
2022/11/01 08:01:19;;;;;;;35.67;18.17;;;;;;;11.66;76.80;98421.41;10373709;28;20065;-55
2022/11/01 08:06:18;;;;;;;33.33;17.33;;;;;;;11.98;75.54;98421.56;10347924;28;20087;-56
2022/11/01 08:11:17;;;;;;;31.23;16.10;;;;;;;12.23;75.15;98414.72;10334155;28;20408;-55
2022/11/01 08:16:16;;;;;;;25.15;14.73;;;;;;;12.46;74.73;98417.44;10340443;28;20028;-55
2022/11/01 08:21:17;;;;;;;;;;;;;;;12.73;74.17;98415.72;10361300;28;20057;-56
2022/11/01 08:26:16;;;;;;;20.05;13.38;;;;;;;13.03;73.63;98407.06;10372856;28;19951;-56
2022/11/01 08:31:15;;;;;;;17.75;12.00;;;;;;;13.30;72.48;98400.06;10370837;28;20021;-56
2022/11/01 08:36:16;;;;;;;;;;;;;;;13.61;70.79;98392.19;10346160;28;20506;-55
2022/11/01 08:41:15;;;;;;;17.48;8.65;;;;;;;13.90;69.86;98398.19;10339723;28;20020;-56
2022/11/01 08:46:14;;;;;;;15.52;7.95;;;;;;;14.14;68.43;98405.03;10347473;28;20041;-56
2022/11/01 08:51:13;;;;;;;15.63;9.27;;;;;;;14.44;67.00;98386.63;10340017;28;20077;-56
2022/11/01 08:56:12;;;;;;;15.45;7.75;;;;;;;14.71;66.18;98393.41;10350557;28;20043;-56
2022/11/01 09:01:11;;;;;;;19.42;8.90;;;;;;;14.98;65.43;98384.50;10331226;28;20400;-56
2022/11/01 09:06:10;;;;;;;14.32;7.28;;;;;;;15.24;63.59;98377.28;10369664;28;20033;-56
2022/11/01 09:11:09;;;;;;;;;;;;;;;15.52;62.47;98371.75;10339853;28;20061;-54
2022/11/01 09:16:08;;;;;;;16.38;6.43;;;;;;;15.84;62.00;98374.03;10360933;28;19936;-54
2022/11/01 09:21:07;;;;;;;12.30;6.65;;;;;;;16.08;59.15;98357.16;10374309;28;20171;-55
2022/11/01 09:26:08;;;;;;;11.77;6.10;;;;;;;16.39;58.14;98359.31;10372828;28;20069;-56
2022/11/01 09:31:10;;;;;;;18.02;6.20;;;;;;;16.64;56.15;98358.97;10372378;28;20488;-56
2022/11/01 09:36:09;;;;;;;15.25;6.90;;;;;;;16.90;54.88;98355.94;10373008;28;20079;-56
2022/11/01 09:41:21;;;;;;;;;;;;;;;17.20;53.50;98343.22;10371951;28;20045;-56
2022/11/01 09:46:25;;;;;;;15.10;6.65;;;;;;;17.45;52.63;98347.09;10365484;28;19982;-56
2022/11/01 09:51:25;;;;;;;15.88;7.93;;;;;;;17.71;51.98;98337.84;10373150;28;20128;-56
2022/11/01 09:56:30;;;;;;;17.25;8.95;;;;;;;18.00;51.52;98323.28;10372001;28;20069;-56
2022/11/01 10:02:10;;;;;;;20.27;8.23;;;;;;;18.28;50.51;98318.25;10380410;28;20455;-56
2022/11/01 10:07:28;;;;;;;;;;;;;;;18.51;48.46;98315.97;10381570;28;20080;-57
2022/11/01 10:12:35;;;;;;;13.05;5.35;;;;;;;18.75;48.25;98305.78;10380379;28;20420;-56
2022/11/01 10:17:53;;;;;;;12.18;6.03;;;;;;;19.04;48.25;98305.00;10380098;28;21032;-56
2022/11/01 10:22:52;;;;;;;13.63;5.63;;;;;;;19.26;47.37;98302.69;10377524;28;20072;-56
2022/11/01 10:27:57;;;;;;;16.30;6.80;;;;;;;19.48;47.25;98297.66;10343294;28;20071;-56
2022/11/01 10:33:01;;;;;;;12.40;5.82;;;;;;;19.73;46.02;98295.25;10378937;28;20775;-56
2022/11/01 10:38:18;;;;;;;20.08;6.15;;;;;;;19.98;45.51;98284.84;10349418;28;20152;-56
2022/11/01 10:43:20;;;;;;;13.10;6.25;;;;;;;20.21;44.01;98281.50;10351763;28;20080;-56
2022/11/01 10:48:33;;;;;;;18.65;6.20;;;;;;;20.51;43.81;98268.25;10374365;28;20068;-57
2022/11/01 10:53:38;;;;;;;12.63;6.07;;;;;;;20.69;43.82;98269.44;10373807;28;20072;-56
2022/11/01 10:58:48;;;;;;;18.10;6.18;;;;;;;20.88;43.10;98267.03;10373390;28;20124;-56
2022/11/01 11:03:48;;;;;;;15.88;5.68;;;;;;;21.12;42.77;98262.66;10344626;28;20061;-54
2022/11/01 11:08:53;;;;;;;11.38;4.47;;;;;;;21.28;40.97;98261.22;10335307;28;20396;-54
2022/11/01 11:13:54;;;;;;;13.15;4.80;;;;;;;21.56;40.70;98249.66;10347443;28;20068;-54
2022/11/01 11:19:14;;;;;;;13.05;5.53;;;;;;;21.84;40.24;98245.97;10376083;28;20052;-54
2022/11/01 11:24:23;;;;;;;9.43;4.50;;;;;;;22.03;38.99;98240.84;10381287;28;20077;-56
2022/11/01 11:29:36;;;;;;;12.37;4.90;;;;;;;22.08;39.43;98226.50;10398072;28;20061;-55
2022/11/01 11:34:37;;;;;;;16.58;4.07;;;;;;;22.27;38.78;98231.94;10375662;28;20064;-55
2022/11/01 11:39:36;;;;;;;9.65;4.28;;;;;;;22.42;36.82;98226.94;10375323;28;20479;-55
2022/11/01 11:44:46;;;;;;;8.73;4.43;;;;;;;22.59;36.34;98227.09;10374808;28;20083;-55
2022/11/01 11:49:45;;;;;;;11.95;3.97;;;;;;;22.82;35.80;98217.34;10375145;28;20075;-55
2022/11/01 11:54:44;;;;;;;10.25;3.63;;;;;;;22.97;35.75;98217.50;10374246;28;20067;-55
2022/11/01 11:59:45;;;;;;;9.70;3.70;;;;;;;23.04;35.47;98210.16;10373531;28;20068;-55
2022/11/01 12:04:55;;;;;;;12.48;3.78;;;;;;;23.17;34.99;98211.34;10376610;28;20060;-55
2022/11/01 12:09:56;;;;;;;11.50;3.60;;;;;;;23.19;34.98;98209.50;10375690;28;20087;-55
2022/11/01 12:14:56;;;;;;;16.13;3.78;;;;;;;23.16;34.29;98201.69;10374608;28;20079;-55
2022/11/01 12:20:06;;;;;;;10.63;3.70;;;;;;;23.27;34.53;98187.97;10392847;28;20561;-55
2022/11/01 12:25:11;;;;;;;13.93;3.90;;;;;;;23.39;34.17;98191.84;10395289;28;20440;-55
2022/11/01 12:30:18;;;;;;;9.70;4.00;;;;;;;23.52;34.05;98182.44;10375833;28;20079;-55
2022/11/01 12:35:23;;;;;;;9.75;3.60;;;;;;;23.61;34.13;98178.50;10375626;28;20076;-55
2022/11/01 12:40:28;;;;;;;7.80;3.17;;;;;;;23.63;34.09;98173.97;10375513;28;20052;-55
2022/11/01 12:45:34;;;;;;;11.05;3.75;;;;;;;23.64;33.78;98176.56;10374797;28;20068;-55
2022/11/01 12:50:59;;;;;;;12.38;3.67;;;;;;;23.70;34.16;98163.94;10374726;28;20080;-55
2022/11/01 12:55:58;;;;;;;10.18;4.55;;;;;;;23.73;33.50;98167.31;10374696;28;20068;-56
2022/11/01 13:01:24;;;;;;;13.45;4.60;;;;;;;23.78;34.08;98167.94;10375214;28;20479;-56
2022/11/01 13:06:32;;;;;;;16.60;4.18;;;;;;;23.77;33.68;98166.25;10345492;28;20077;-56
2022/11/01 13:11:45;;;;;;;11.15;3.88;;;;;;;23.74;33.67;98166.38;10333707;28;20163;-55
2022/11/01 13:16:49;;;;;;;14.13;4.68;;;;;;;23.74;33.23;98165.50;10333116;28;20065;-55
2022/11/01 13:21:52;;;;;;;12.60;4.20;;;;;;;23.78;33.09;98167.94;10330505;28;20057;-55
2022/11/01 13:26:57;;;;;;;8.98;3.88;;;;;;;23.73;32.89;98167.31;10330742;28;20496;-54
2022/11/01 13:32:10;;;;;;;17.48;4.25;;;;;;;23.80;33.10;98174.03;10367218;28;20052;-55
2022/11/01 13:37:12;;;;;;;9.40;4.18;;;;;;;23.82;33.39;98169.53;10367359;28;20484;-55
2022/11/01 13:42:17;;;;;;;13.90;3.83;;;;;;;23.81;33.28;98169.59;10364992;28;20120;-54
2022/11/01 13:47:50;;;;;;;11.52;3.78;;;;;;;23.74;33.32;98160.22;10368054;28;20064;-56
2022/11/01 13:53:03;;;;;;;9.88;4.38;;;;;;;23.70;33.47;98158.63;10370610;28;20522;-54
2022/11/01 13:58:05;;;;;;;12.68;4.03;;;;;;;23.60;33.74;98153.78;10369074;28;20067;-55
2022/11/01 14:03:24;;;;;;;13.13;5.07;;;;;;;23.49;33.81;98156.09;10370913;28;20060;-55
2022/11/01 14:08:27;;;;;;;16.17;4.68;;;;;;;23.41;34.26;98153.75;10369811;28;20473;-55
2022/11/01 14:13:38;;;;;;;14.25;4.80;;;;;;;23.30;33.99;98147.25;10370844;28;20112;-55
2022/11/01 14:19:02;;;;;;;20.02;5.28;;;;;;;23.19;34.63;98159.19;10370340;28;20073;-55
2022/11/01 14:24:05;;;;;;;17.10;7.30;;;;;;;23.03;35.13;98158.16;10369998;28;20083;-55
2022/11/01 14:29:09;;;;;;;26.40;9.25;;;;;;;22.88;35.68;98158.84;10369978;28;20488;-55
2022/11/01 14:34:22;;;;;;;26.60;7.45;;;;;;;22.66;36.24;98165.06;10369909;28;20067;-55
2022/11/01 14:39:45;;;;;;;26.85;8.07;;;;;;;22.34;36.75;98159.38;10370210;28;20071;-55
2022/11/01 14:44:48;;;;;;;23.20;7.57;;;;;;;22.05;37.36;98147.34;10371577;28;20483;-55
2022/11/01 14:49:51;;;;;;;30.33;10.63;;;;;;;21.81;38.51;98151.84;10376753;28;20071;-55
2022/11/01 14:55:02;;;;;;;30.33;11.68;;;;;;;21.45;39.58;98157.66;10376743;28;20064;-55
2022/11/01 15:00:27;;;;;;;38.92;13.48;;;;;;;21.05;40.39;98158.25;10376745;28;20044;-55
2022/11/01 15:05:26;;;;;;;33.15;10.70;;;;;;;20.68;40.89;98171.00;10376079;28;20583;-55
2022/11/01 15:10:26;;;;;;;45.83;12.90;;;;;;;20.36;41.47;98165.94;10376982;28;20068;-55
2022/11/01 15:15:29;;;;;;;25.15;10.15;;;;;;;20.00;41.98;98171.50;10375791;28;20079;-55
2022/11/01 15:20:35;;;;;;;30.80;9.45;;;;;;;19.65;42.16;98169.09;10375992;28;20457;-55
2022/11/01 15:25:35;;;;;;;50.63;20.35;;;;;;;19.33;42.97;98175.28;10376040;28;20061;-56
2022/11/01 15:30:34;;;;;;;76.78;27.45;;;;;;;19.03;43.69;98177.03;10375637;28;20064;-55
2022/11/01 15:35:33;;;;;;;71.25;28.77;;;;;;;18.69;44.27;98183.25;10375564;28;20072;-55
2022/11/01 15:40:33;;;;;;;101.15;47.58;;;;;;;18.40;44.21;98187.44;10374677;28;20032;-55
2022/11/01 15:45:36;;;;;;;87.18;47.60;;;;;;;18.16;45.00;98191.56;10375081;28;20065;-55
2022/11/01 15:50:38;;;;;;;78.60;33.45;;;;;;;17.90;45.81;98191.34;10377112;28;20496;-55
2022/11/01 15:55:41;;;;;;;53.60;24.60;;;;;;;17.69;46.06;98204.00;10374470;28;20061;-55
2022/11/01 16:00:47;;;;;;;23.25;13.30;;;;;;;17.47;46.36;98208.88;10374517;28;20512;-55
2022/11/01 16:06:20;;;;;;;25.42;11.45;;;;;;;17.26;46.51;98210.19;10373602;28;20492;-55
2022/11/01 16:11:22;;;;;;;23.92;11.23;;;;;;;17.06;47.13;98218.44;10357405;28;20075;-55
2022/11/01 16:16:21;;;;;;;24.02;9.88;;;;;;;16.96;47.23;98221.25;10369748;28;20495;-55
2022/11/01 16:21:29;;;;;;;;;;;;;;;16.83;47.46;98220.66;10370115;28;20108;-55
2022/11/01 16:26:28;;;;;;;28.02;12.77;;;;;;;16.74;47.57;98229.50;10369446;28;19959;-55
2022/11/01 16:31:28;;;;;;;;;;;;;;;16.58;47.95;98236.75;10370899;28;20059;-55
2022/11/01 16:36:29;;;;;;;27.70;12.98;;;;;;;16.48;48.25;98235.22;10370302;28;19979;-55
2022/11/01 16:41:34;;;;;;;28.75;12.77;;;;;;;16.32;48.38;98239.84;10373056;28;20071;-55
2022/11/01 16:46:33;;;;;;;31.85;13.82;;;;;;;16.16;48.63;98238.34;10373073;28;20091;-55
2022/11/01 16:51:32;;;;;;;;;;;;;;;15.99;49.30;98229.00;10372664;28;20368;-55
2022/11/01 16:56:33;;;;;;;36.67;25.23;;;;;;;15.79;49.79;98239.78;10372083;28;19913;-55
2022/11/01 17:01:32;;;;;;;33.83;19.42;;;;;;;15.66;50.60;98246.88;10372030;28;20371;-55
2022/11/01 17:06:31;;;;;;;34.35;16.85;;;;;;;15.53;50.95;98240.09;10370779;28;20526;-55
2022/11/01 17:11:30;;;;;;;;;;;;;;;15.39;51.55;98255.97;10372151;28;20040;-57
2022/11/01 17:16:29;;;;;;;41.45;21.05;;;;;;;15.22;51.88;98250.94;10371794;28;19912;-56
2022/11/01 17:21:31;;;;;;;44.67;19.17;;;;;;;15.08;52.03;98250.22;10370006;28;20452;-57
2022/11/01 17:26:30;;;;;;;43.10;19.90;;;;;;;14.94;52.85;98249.50;10371668;28;20621;-55
2022/11/01 17:31:29;;;;;;;;;;;;;;;14.77;53.37;98250.53;10371186;28;20052;-56
2022/11/01 17:36:28;;;;;;;42.63;16.77;;;;;;;14.59;53.92;98246.34;10371001;28;20429;-56
2022/11/01 17:41:27;;;;;;;40.25;20.17;;;;;;;14.46;54.47;98246.47;10371251;28;20481;-56
2022/11/01 17:46:26;;;;;;;;;;;;;;;14.29;55.52;98252.69;10371046;28;20072;-56
2022/11/01 17:51:25;;;;;;;60.80;29.30;;;;;;;14.16;56.26;98249.28;10370274;28;20028;-56
2022/11/01 17:56:24;;;;;;;63.25;30.08;;;;;;;14.03;56.72;98249.38;10370242;28;20037;-56
2022/11/01 18:01:23;;;;;;;76.25;34.40;;;;;;;13.91;57.25;98255.56;10371027;28;20095;-56
2022/11/01 18:06:22;;;;;;;;;;;;;;;13.74;58.08;98253.06;10370391;28;20487;-56
2022/11/01 18:11:49;;;;;;;68.25;37.08;;;;;;;13.66;58.59;98254.84;10370892;28;20279;-55
2022/11/01 18:16:55;;;;;;;54.78;31.02;;;;;;;13.53;59.17;98257.47;10370599;28;20049;-55
2022/11/01 18:22:11;;;;;;;59.95;33.53;;;;;;;13.44;59.61;98267.06;10377285;28;20124;-55
2022/11/01 18:27:11;;;;;;;60.00;33.45;;;;;;;13.29;60.40;98261.06;10377632;28;20068;-55
2022/11/01 18:32:17;;;;;;;59.70;34.53;;;;;;;13.16;60.92;98254.16;10378431;28;20437;-55
2022/11/01 18:37:25;;;;;;;75.68;38.40;;;;;;;13.02;61.54;98263.75;10376772;28;20068;-54
2022/11/01 18:42:25;;;;;;;75.15;42.35;;;;;;;12.90;61.41;98267.25;10376895;28;20139;-56
2022/11/01 18:47:33;;;;;;;65.43;40.05;;;;;;;12.79;61.88;98274.22;10379697;28;20579;-56
2022/11/01 18:52:32;;;;;;;69.10;41.45;;;;;;;12.66;62.21;98262.97;10380576;28;20068;-54
2022/11/01 18:57:31;;;;;;;65.63;38.60;;;;;;;12.55;63.02;98264.69;10379747;28;20068;-54
2022/11/01 19:02:32;;;;;;;75.38;44.38;;;;;;;12.41;63.44;98273.38;10380088;28;20028;-55
2022/11/01 19:07:31;;;;;;;69.32;42.50;;;;;;;12.35;63.73;98272.53;10379804;28;20518;-54
2022/11/01 19:12:44;;;;;;;63.03;33.88;;;;;;;12.26;64.49;98279.41;10378982;28;20469;-55
2022/11/01 19:17:43;;;;;;;62.45;36.83;;;;;;;12.14;65.16;98278.56;10379314;28;20519;-55
2022/11/01 19:22:43;;;;;;;61.00;34.45;;;;;;;12.04;65.35;98278.53;10378600;28;20076;-55
2022/11/01 19:27:42;;;;;;;71.90;37.45;;;;;;;11.95;65.73;98285.47;10379391;28;20075;-55
2022/11/01 19:32:41;;;;;;;;;;;;;;;11.83;66.13;98281.97;10378763;28;20060;-56
2022/11/01 19:37:41;;;;;;;58.00;35.53;;;;;;;11.80;66.06;98281.06;10377972;28;20379;-55
2022/11/01 19:42:40;;;;;;;54.17;32.20;;;;;;;11.75;66.23;98285.41;10375140;28;20079;-55
2022/11/01 19:47:44;;;;;;;51.97;32.03;;;;;;;11.62;67.01;98290.56;10370037;28;20076;-56
2022/11/01 19:52:44;;;;;;;53.92;33.38;;;;;;;11.49;67.70;98273.19;10374355;28;20060;-55
2022/11/01 19:57:42;;;;;;;;;;;;;;;11.48;67.26;98284.44;10374983;28;20080;-56
2022/11/01 20:02:42;;;;;;;47.83;30.03;;;;;;;11.39;68.34;98292.22;10373329;28;19951;-56
2022/11/01 20:07:41;;;;;;;55.20;32.53;;;;;;;11.27;68.84;98286.94;10371849;28;20042;-57
2022/11/01 20:12:40;;;;;;;59.33;31.00;;;;;;;11.21;69.13;98290.38;10374189;28;20470;-56
2022/11/01 20:17:39;;;;;;;;;;;;;;;11.10;69.93;98302.44;10373488;28;20069;-56
2022/11/01 20:22:38;;;;;;;61.50;31.38;;;;;;;11.07;69.96;98299.84;10260927;28;20015;-55
2022/11/01 20:27:37;;;;;;;61.65;31.98;;;;;;;11.00;70.08;98297.19;10299051;28;20046;-55
2022/11/01 20:32:39;;;;;;;46.25;28.48;;;;;;;10.95;70.58;98291.09;10332706;28;20108;-56
2022/11/01 20:37:37;;;;;;;50.53;27.67;;;;;;;10.88;71.05;98293.66;10332418;28;20065;-55
2022/11/01 20:42:37;;;;;;;83.07;42.40;;;;;;;10.72;71.55;98292.66;10330397;28;20034;-56
2022/11/01 20:47:36;;;;;;;93.85;53.15;;;;;;;10.69;71.74;98290.03;10331543;28;20076;-56
2022/11/01 20:52:34;;;;;;;95.47;53.90;;;;;;;10.59;72.09;98292.56;10322622;28;20048;-55
2022/11/01 20:57:34;;;;;;;78.10;49.30;;;;;;;10.51;73.13;98294.22;10330995;28;20045;-56
2022/11/01 21:02:33;;;;;;;;;;;;;;;10.46;72.52;98290.72;10332137;28;20083;-55
2022/11/01 21:07:32;;;;;;;70.22;43.50;;;;;;;10.41;73.42;98295.00;10330136;28;19960;-56
2022/11/01 21:12:44;;;;;;;64.28;42.67;;;;;;;10.35;73.28;98294.94;10330665;28;20065;-55
2022/11/01 21:17:43;;;;;;;76.72;47.92;;;;;;;10.33;73.35;98294.06;10331893;28;20108;-55
2022/11/01 21:22:42;;;;;;;77.82;46.80;;;;;;;10.27;73.26;98286.25;10331532;28;20079;-56
2022/11/01 21:27:42;;;;;;;77.43;47.13;;;;;;;10.19;73.55;98292.25;10332285;28;20055;-56
2022/11/01 21:32:44;;;;;;;65.30;42.55;;;;;;;10.12;73.87;98289.56;10331308;28;20068;-56
2022/11/01 21:37:42;;;;;;;66.25;41.85;;;;;;;10.06;74.07;98292.09;10332485;28;20080;-56
2022/11/01 21:42:43;;;;;;;63.72;37.58;;;;;;;9.99;73.83;98288.59;10331123;28;20055;-55
2022/11/01 21:47:42;;;;;;;56.67;35.60;;;;;;;9.91;74.05;98279.84;10334562;28;20069;-56
2022/11/01 21:52:41;;;;;;;55.67;33.13;;;;;;;9.86;74.19;98274.59;10335629;28;20063;-56
2022/11/01 21:57:40;;;;;;;47.30;30.52;;;;;;;9.78;74.37;98279.72;10348096;28;20040;-56
2022/11/01 22:02:39;;;;;;;;;;;;;;;9.73;74.95;98276.22;10348821;28;20527;-56
2022/11/01 22:07:38;;;;;;;53.55;32.08;;;;;;;9.65;75.51;98275.28;10347935;28;20380;-55
2022/11/01 22:12:37;;;;;;;63.58;38.50;;;;;;;9.56;75.78;98275.19;10347612;28;20033;-55
2022/11/01 22:17:36;;;;;;;52.10;32.67;;;;;;;9.50;75.96;98277.69;10348345;28;20033;-55
2022/11/01 22:22:35;;;;;;;62.00;33.17;;;;;;;9.44;76.77;98275.91;10347543;28;20032;-56
2022/11/01 22:27:35;;;;;;;55.45;26.50;;;;;;;9.39;76.94;98279.28;10347439;28;20117;-55
2022/11/01 22:32:34;;;;;;;46.13;23.40;;;;;;;9.31;76.71;98267.09;10347450;28;20449;-55
2022/11/01 22:37:34;;;;;;;;;;;;;;;9.23;76.87;98260.03;10347912;28;20100;-55
2022/11/01 22:42:32;;;;;;;55.37;28.13;;;;;;;9.18;77.76;98260.00;10347320;28;19948;-55
2022/11/01 22:47:32;;;;;;;57.40;31.13;;;;;;;9.03;78.23;98270.16;10343554;28;20116;-56
2022/11/01 22:52:35;;;;;;;62.20;34.80;;;;;;;8.97;78.15;98265.75;10343773;28;20066;-56
2022/11/01 22:57:39;;;;;;;57.78;34.33;;;;;;;8.94;78.10;98256.22;10343252;28;20302;-55
2022/11/01 23:02:38;;;;;;;57.78;35.53;;;;;;;8.87;78.39;98249.25;10342054;28;20068;-55
2022/11/01 23:07:41;;;;;;;52.53;30.23;;;;;;;8.84;78.07;98256.97;10335077;28;20492;-55
2022/11/01 23:18:26;;;;;;;52.33;28.80;;;;;;;8.70;78.92;98245.56;10333505;28;20057;-56
2022/11/01 23:23:25;;;;;;;60.72;31.75;;;;;;;8.66;78.64;98248.94;10335346;28;20072;-55
2022/11/01 23:28:25;;;;;;;;;;;;;;;8.60;78.94;98248.84;10336797;28;20057;-56
2022/11/01 23:33:32;;;;;;;52.90;32.60;;;;;;;8.55;79.21;98250.50;10336125;28;19959;-55